sensor_id;sensor_type;location;lat;lon;timestamp;temperature;humidity
10306;DHT22;5198;52.382;9.020;2023-04-04T00:01:03;2.20;99.90
10306;DHT22;5198;52.382;9.020;2023-04-04T00:09:10;2.10;99.90
10306;DHT22;5198;52.382;9.020;2023-04-04T00:13:13;2.00;99.90
10306;DHT22;5198;52.382;9.020;2023-04-04T00:17:17;2.00;99.90
10306;DHT22;5198;52.382;9.020;2023-04-04T00:21:20;1.90;99.90
10306;DHT22;5198;52.382;9.020;2023-04-04T00:25:24;1.90;99.90
10306;DHT22;5198;52.382;9.020;2023-04-04T00:29:27;1.80;99.90
10306;DHT22;5198;52.382;9.020;2023-04-04T00:33:31;1.70;99.90
10306;DHT22;5198;52.382;9.020;2023-04-04T00:37:34;1.70;99.90
10306;DHT22;5198;52.382;9.020;2023-04-04T00:41:37;1.70;99.90
10306;DHT22;5198;52.382;9.020;2023-04-04T00:45:40;1.60;99.90
10306;DHT22;5198;52.382;9.020;2023-04-04T00:49:44;1.60;99.90
10306;DHT22;5198;52.382;9.020;2023-04-04T00:53:47;1.50;99.90
10306;DHT22;5198;52.382;9.020;2023-04-04T00:57:52;1.40;99.90
10306;DHT22;5198;52.382;9.020;2023-04-04T01:01:55;1.40;99.90
10306;DHT22;5198;52.382;9.020;2023-04-04T01:05:59;1.40;99.90
10306;DHT22;5198;52.382;9.020;2023-04-04T01:10:03;1.30;99.90
10306;DHT22;5198;52.382;9.020;2023-04-04T01:14:06;1.30;99.90
10306;DHT22;5198;52.382;9.020;2023-04-04T01:18:10;1.20;99.90
10306;DHT22;5198;52.382;9.020;2023-04-04T01:22:14;1.20;99.90
10306;DHT22;5198;52.382;9.020;2023-04-04T01:26:20;1.10;99.90
10306;DHT22;5198;52.382;9.020;2023-04-04T01:30:24;1.00;99.90
10306;DHT22;5198;52.382;9.020;2023-04-04T01:34:31;1.00;99.90
10306;DHT22;5198;52.382;9.020;2023-04-04T01:38:41;0.90;99.90
10306;DHT22;5198;52.382;9.020;2023-04-04T01:42:47;0.90;99.90
10306;DHT22;5198;52.382;9.020;2023-04-04T01:46:51;0.80;99.90
10306;DHT22;5198;52.382;9.020;2023-04-04T01:50:54;0.80;99.90
10306;DHT22;5198;52.382;9.020;2023-04-04T01:54:57;0.70;99.90
10306;DHT22;5198;52.382;9.020;2023-04-04T01:59:01;0.70;99.90
10306;DHT22;5198;52.382;9.020;2023-04-04T02:03:04;0.70;99.90
10306;DHT22;5198;52.382;9.020;2023-04-04T02:07:07;0.70;99.90
10306;DHT22;5198;52.382;9.020;2023-04-04T02:11:10;0.70;99.90
10306;DHT22;5198;52.382;9.020;2023-04-04T02:15:14;0.60;99.90
10306;DHT22;5198;52.382;9.020;2023-04-04T02:19:17;0.60;99.90
10306;DHT22;5198;52.382;9.020;2023-04-04T02:23:20;0.60;99.90
10306;DHT22;5198;52.382;9.020;2023-04-04T02:27:23;0.60;99.90
10306;DHT22;5198;52.382;9.020;2023-04-04T02:31:27;0.60;99.90
10306;DHT22;5198;52.382;9.020;2023-04-04T02:35:30;0.50;99.90
10306;DHT22;5198;52.382;9.020;2023-04-04T02:43:36;0.40;99.90
10306;DHT22;5198;52.382;9.020;2023-04-04T02:47:41;0.50;99.90
10306;DHT22;5198;52.382;9.020;2023-04-04T02:51:44;0.50;99.90
10306;DHT22;5198;52.382;9.020;2023-04-04T02:55:47;0.40;99.90
10306;DHT22;5198;52.382;9.020;2023-04-04T02:59:49;0.40;99.90
10306;DHT22;5198;52.382;9.020;2023-04-04T03:03:54;0.40;99.90
10306;DHT22;5198;52.382;9.020;2023-04-04T03:07:57;0.30;99.90
10306;DHT22;5198;52.382;9.020;2023-04-04T03:12:00;0.30;99.90
10306;DHT22;5198;52.382;9.020;2023-04-04T03:16:04;0.30;99.90
10306;DHT22;5198;52.382;9.020;2023-04-04T03:20:10;0.30;99.90
10306;DHT22;5198;52.382;9.020;2023-04-04T03:24:13;0.20;99.90
10306;DHT22;5198;52.382;9.020;2023-04-04T03:28:16;0.20;99.90
10306;DHT22;5198;52.382;9.020;2023-04-04T03:32:18;0.20;99.90
10306;DHT22;5198;52.382;9.020;2023-04-04T03:36:23;0.20;99.90
10306;DHT22;5198;52.382;9.020;2023-04-04T03:40:26;0.20;99.90
10306;DHT22;5198;52.382;9.020;2023-04-04T03:44:29;0.20;99.90
10306;DHT22;5198;52.382;9.020;2023-04-04T03:48:32;0.10;99.90
10306;DHT22;5198;52.382;9.020;2023-04-04T03:52:37;0.10;99.90
10306;DHT22;5198;52.382;9.020;2023-04-04T03:56:41;0.10;99.90
10306;DHT22;5198;52.382;9.020;2023-04-04T04:00:44;0.10;99.90
10306;DHT22;5198;52.382;9.020;2023-04-04T04:12:54;0.10;99.90
10306;DHT22;5198;52.382;9.020;2023-04-04T04:16:57;0.10;99.90
10306;DHT22;5198;52.382;9.020;2023-04-04T04:21:00;0.10;99.90
10306;DHT22;5198;52.382;9.020;2023-04-04T04:25:04;0.00;99.90
10306;DHT22;5198;52.382;9.020;2023-04-04T04:29:08;0.00;99.90
10306;DHT22;5198;52.382;9.020;2023-04-04T04:33:11;-0.10;99.90
10306;DHT22;5198;52.382;9.020;2023-04-04T04:37:14;-0.10;99.90
10306;DHT22;5198;52.382;9.020;2023-04-04T04:41:17;-0.10;99.90
10306;DHT22;5198;52.382;9.020;2023-04-04T04:45:22;-0.10;99.90
10306;DHT22;5198;52.382;9.020;2023-04-04T04:49:24;-0.20;99.90
10306;DHT22;5198;52.382;9.020;2023-04-04T04:53:27;-0.20;99.90
10306;DHT22;5198;52.382;9.020;2023-04-04T04:57:31;-0.20;99.90
10306;DHT22;5198;52.382;9.020;2023-04-04T05:01:36;-0.20;99.90
10306;DHT22;5198;52.382;9.020;2023-04-04T05:05:41;-0.20;99.90
10306;DHT22;5198;52.382;9.020;2023-04-04T05:09:44;-0.30;99.90
10306;DHT22;5198;52.382;9.020;2023-04-04T05:13:47;-0.30;99.90
10306;DHT22;5198;52.382;9.020;2023-04-04T05:17:51;-0.30;99.90
10306;DHT22;5198;52.382;9.020;2023-04-04T05:21:54;-0.30;99.90
10306;DHT22;5198;52.382;9.020;2023-04-04T05:25:57;-0.30;99.90
10306;DHT22;5198;52.382;9.020;2023-04-04T05:30:00;-0.30;99.90
10306;DHT22;5198;52.382;9.020;2023-04-04T05:34:04;-0.40;99.90
10306;DHT22;5198;52.382;9.020;2023-04-04T05:38:09;-0.40;99.90
10306;DHT22;5198;52.382;9.020;2023-04-04T05:42:11;-0.40;99.90
10306;DHT22;5198;52.382;9.020;2023-04-04T05:46:14;-0.40;99.90
10306;DHT22;5198;52.382;9.020;2023-04-04T05:50:18;-0.30;99.90
10306;DHT22;5198;52.382;9.020;2023-04-04T05:54:21;-0.30;99.90
10306;DHT22;5198;52.382;9.020;2023-04-04T05:58:24;-0.20;99.90
10306;DHT22;5198;52.382;9.020;2023-04-04T06:02:27;-0.10;99.90
10306;DHT22;5198;52.382;9.020;2023-04-04T06:06:32;0.10;99.90
10306;DHT22;5198;52.382;9.020;2023-04-04T06:10:35;0.10;99.90
10306;DHT22;5198;52.382;9.020;2023-04-04T06:14:38;0.30;99.90
10306;DHT22;5198;52.382;9.020;2023-04-04T06:18:41;0.40;99.90
10306;DHT22;5198;52.382;9.020;2023-04-04T06:22:45;0.50;99.90
10306;DHT22;5198;52.382;9.020;2023-04-04T06:26:48;0.60;99.90
10306;DHT22;5198;52.382;9.020;2023-04-04T06:30:52;0.70;99.90
10306;DHT22;5198;52.382;9.020;2023-04-04T06:38:59;0.90;99.90
10306;DHT22;5198;52.382;9.020;2023-04-04T06:43:02;1.00;99.90
10306;DHT22;5198;52.382;9.020;2023-04-04T06:47:05;1.10;99.90
10306;DHT22;5198;52.382;9.020;2023-04-04T07:03:20;1.70;99.90
10306;DHT22;5198;52.382;9.020;2023-04-04T07:07:24;1.70;99.90
10306;DHT22;5198;52.382;9.020;2023-04-04T07:11:27;1.80;99.90
10306;DHT22;5198;52.382;9.020;2023-04-04T07:15:30;1.90;99.90
10306;DHT22;5198;52.382;9.020;2023-04-04T07:19:34;2.00;99.90
10306;DHT22;5198;52.382;9.020;2023-04-04T07:23:37;2.10;99.90
10306;DHT22;5198;52.382;9.020;2023-04-04T07:27:39;2.40;99.90
10306;DHT22;5198;52.382;9.020;2023-04-04T07:31:42;2.50;99.90
10306;DHT22;5198;52.382;9.020;2023-04-04T07:35:46;2.70;99.90
10306;DHT22;5198;52.382;9.020;2023-04-04T07:39:49;3.10;99.90
10306;DHT22;5198;52.382;9.020;2023-04-04T07:43:52;3.30;99.90
10306;DHT22;5198;52.382;9.020;2023-04-04T07:47:55;3.60;99.90
10306;DHT22;5198;52.382;9.020;2023-04-04T07:51:59;3.90;99.90
10306;DHT22;5198;52.382;9.020;2023-04-04T07:56:02;4.20;99.90
10306;DHT22;5198;52.382;9.020;2023-04-04T08:08:15;5.00;99.90
10306;DHT22;5198;52.382;9.020;2023-04-04T08:12:18;5.40;99.90
10306;DHT22;5198;52.382;9.020;2023-04-04T08:16:21;5.50;99.90
10306;DHT22;5198;52.382;9.020;2023-04-04T08:20:24;5.80;99.90
10306;DHT22;5198;52.382;9.020;2023-04-04T08:24:30;6.40;99.90
10306;DHT22;5198;52.382;9.020;2023-04-04T08:32:36;7.10;99.90
10306;DHT22;5198;52.382;9.020;2023-04-04T08:36:38;7.10;99.90
10306;DHT22;5198;52.382;9.020;2023-04-04T08:40:45;7.20;99.90
10306;DHT22;5198;52.382;9.020;2023-04-04T08:44:48;7.40;99.90
10306;DHT22;5198;52.382;9.020;2023-04-04T08:48:52;7.70;99.90
10306;DHT22;5198;52.382;9.020;2023-04-04T08:52:58;7.90;99.90
10306;DHT22;5198;52.382;9.020;2023-04-04T08:57:04;8.10;99.90
10306;DHT22;5198;52.382;9.020;2023-04-04T09:01:09;8.30;99.90
10306;DHT22;5198;52.382;9.020;2023-04-04T09:09:16;8.60;99.90
10306;DHT22;5198;52.382;9.020;2023-04-04T09:13:20;9.20;99.90
10306;DHT22;5198;52.382;9.020;2023-04-04T09:17:23;9.20;99.90
10306;DHT22;5198;52.382;9.020;2023-04-04T09:21:26;9.40;99.90
10306;DHT22;5198;52.382;9.020;2023-04-04T09:25:29;9.70;99.90
10306;DHT22;5198;52.382;9.020;2023-04-04T09:29:34;9.90;99.90
10306;DHT22;5198;52.382;9.020;2023-04-04T09:33:37;10.00;99.90
10306;DHT22;5198;52.382;9.020;2023-04-04T09:37:40;10.30;99.90
10306;DHT22;5198;52.382;9.020;2023-04-04T09:41:43;10.50;99.90
10306;DHT22;5198;52.382;9.020;2023-04-04T09:45:48;10.60;99.90
10306;DHT22;5198;52.382;9.020;2023-04-04T09:49:51;11.00;99.90
10306;DHT22;5198;52.382;9.020;2023-04-04T09:53:54;11.20;99.90
10306;DHT22;5198;52.382;9.020;2023-04-04T09:58:01;11.70;99.90
10306;DHT22;5198;52.382;9.020;2023-04-04T10:02:13;11.40;99.90
10306;DHT22;5198;52.382;9.020;2023-04-04T10:06:16;11.70;99.90
10306;DHT22;5198;52.382;9.020;2023-04-04T10:10:19;11.80;99.90
10306;DHT22;5198;52.382;9.020;2023-04-04T10:14:32;12.00;99.90
10306;DHT22;5198;52.382;9.020;2023-04-04T10:18:37;12.10;99.90
10306;DHT22;5198;52.382;9.020;2023-04-04T10:22:40;12.30;99.90
10306;DHT22;5198;52.382;9.020;2023-04-04T10:26:45;12.40;99.90
10306;DHT22;5198;52.382;9.020;2023-04-04T10:30:49;12.50;99.90
10306;DHT22;5198;52.382;9.020;2023-04-04T10:35:08;12.60;99.90
10306;DHT22;5198;52.382;9.020;2023-04-04T10:39:12;12.70;99.90
10306;DHT22;5198;52.382;9.020;2023-04-04T10:43:16;12.80;99.90
10306;DHT22;5198;52.382;9.020;2023-04-04T10:47:22;12.90;99.90
10306;DHT22;5198;52.382;9.020;2023-04-04T10:51:28;13.00;99.90
10306;DHT22;5198;52.382;9.020;2023-04-04T10:55:34;13.10;99.90
10306;DHT22;5198;52.382;9.020;2023-04-04T11:04:14;13.20;99.90
10306;DHT22;5198;52.382;9.020;2023-04-04T11:08:23;13.30;99.90
10306;DHT22;5198;52.382;9.020;2023-04-04T11:12:27;13.40;99.90
10306;DHT22;5198;52.382;9.020;2023-04-04T11:16:42;13.50;99.90
10306;DHT22;5198;52.382;9.020;2023-04-04T11:20:46;13.50;99.90
10306;DHT22;5198;52.382;9.020;2023-04-04T11:24:52;13.70;99.90
10306;DHT22;5198;52.382;9.020;2023-04-04T11:29:01;13.80;99.90
10306;DHT22;5198;52.382;9.020;2023-04-04T11:33:04;13.90;99.90
10306;DHT22;5198;52.382;9.020;2023-04-04T11:37:15;13.90;99.90
10306;DHT22;5198;52.382;9.020;2023-04-04T11:41:20;14.00;99.90
10306;DHT22;5198;52.382;9.020;2023-04-04T11:49:27;14.20;99.90
10306;DHT22;5198;52.382;9.020;2023-04-04T11:53:31;14.30;99.90
10306;DHT22;5198;52.382;9.020;2023-04-04T11:57:39;14.40;99.90
10306;DHT22;5198;52.382;9.020;2023-04-04T12:01:43;14.50;99.90
10306;DHT22;5198;52.382;9.020;2023-04-04T12:05:48;14.60;99.90
10306;DHT22;5198;52.382;9.020;2023-04-04T12:09:51;14.70;99.90
10306;DHT22;5198;52.382;9.020;2023-04-04T12:13:58;14.80;99.90
10306;DHT22;5198;52.382;9.020;2023-04-04T12:18:01;14.70;99.90
10306;DHT22;5198;52.382;9.020;2023-04-04T12:22:04;14.70;99.90
10306;DHT22;5198;52.382;9.020;2023-04-04T12:26:08;14.60;99.90
10306;DHT22;5198;52.382;9.020;2023-04-04T12:30:13;14.50;99.90
10306;DHT22;5198;52.382;9.020;2023-04-04T12:34:17;14.40;99.90
10306;DHT22;5198;52.382;9.020;2023-04-04T12:38:20;14.40;99.90
10306;DHT22;5198;52.382;9.020;2023-04-04T12:42:24;14.40;99.90
10306;DHT22;5198;52.382;9.020;2023-04-04T12:46:33;14.40;99.90
10306;DHT22;5198;52.382;9.020;2023-04-04T12:50:47;14.40;99.90
10306;DHT22;5198;52.382;9.020;2023-04-04T12:54:50;14.40;99.90
10306;DHT22;5198;52.382;9.020;2023-04-04T12:59:08;14.20;99.90
10306;DHT22;5198;52.382;9.020;2023-04-04T13:03:13;14.20;99.90
10306;DHT22;5198;52.382;9.020;2023-04-04T13:07:20;14.10;99.90
10306;DHT22;5198;52.382;9.020;2023-04-04T13:11:23;14.10;99.90
10306;DHT22;5198;52.382;9.020;2023-04-04T13:15:48;14.00;99.90
10306;DHT22;5198;52.382;9.020;2023-04-04T13:19:53;13.90;99.90
10306;DHT22;5198;52.382;9.020;2023-04-04T13:23:56;13.70;99.90
10306;DHT22;5198;52.382;9.020;2023-04-04T13:27:58;13.60;99.90
10306;DHT22;5198;52.382;9.020;2023-04-04T13:32:01;13.40;99.90
10306;DHT22;5198;52.382;9.020;2023-04-04T13:36:06;13.30;99.90
10306;DHT22;5198;52.382;9.020;2023-04-04T13:40:10;13.20;99.90
10306;DHT22;5198;52.382;9.020;2023-04-04T13:44:13;13.20;99.90
10306;DHT22;5198;52.382;9.020;2023-04-04T13:48:17;13.10;99.90
10306;DHT22;5198;52.382;9.020;2023-04-04T13:52:21;13.00;99.90
10306;DHT22;5198;52.382;9.020;2023-04-04T13:56:24;12.90;99.90
10306;DHT22;5198;52.382;9.020;2023-04-04T14:00:27;12.90;99.90
10306;DHT22;5198;52.382;9.020;2023-04-04T14:04:30;12.70;99.90
10306;DHT22;5198;52.382;9.020;2023-04-04T14:08:34;12.60;99.90
10306;DHT22;5198;52.382;9.020;2023-04-04T14:12:37;12.60;99.90
10306;DHT22;5198;52.382;9.020;2023-04-04T14:16:40;12.70;99.90
10306;DHT22;5198;52.382;9.020;2023-04-04T14:20:43;12.70;99.90
10306;DHT22;5198;52.382;9.020;2023-04-04T14:24:47;12.80;99.90
10306;DHT22;5198;52.382;9.020;2023-04-04T14:28:50;12.90;99.90
10306;DHT22;5198;52.382;9.020;2023-04-04T14:32:53;13.10;99.90
10306;DHT22;5198;52.382;9.020;2023-04-04T14:36:56;13.20;99.90
10306;DHT22;5198;52.382;9.020;2023-04-04T14:41:00;13.30;99.90
10306;DHT22;5198;52.382;9.020;2023-04-04T14:45:04;13.30;99.90
10306;DHT22;5198;52.382;9.020;2023-04-04T14:49:08;13.40;99.90
10306;DHT22;5198;52.382;9.020;2023-04-04T14:53:11;13.50;99.90
10306;DHT22;5198;52.382;9.020;2023-04-04T14:57:15;13.60;99.90
10306;DHT22;5198;52.382;9.020;2023-04-04T15:01:18;13.70;99.90
10306;DHT22;5198;52.382;9.020;2023-04-04T15:05:23;13.70;99.90
10306;DHT22;5198;52.382;9.020;2023-04-04T15:09:26;13.70;99.90
10306;DHT22;5198;52.382;9.020;2023-04-04T15:13:31;13.70;99.90
10306;DHT22;5198;52.382;9.020;2023-04-04T15:17:34;13.70;99.90
10306;DHT22;5198;52.382;9.020;2023-04-04T15:21:37;13.70;99.90
10306;DHT22;5198;52.382;9.020;2023-04-04T15:25:40;13.70;99.90
10306;DHT22;5198;52.382;9.020;2023-04-04T15:29:45;13.70;99.90
10306;DHT22;5198;52.382;9.020;2023-04-04T15:33:47;13.70;99.90
10306;DHT22;5198;52.382;9.020;2023-04-04T15:37:50;13.70;99.90
10306;DHT22;5198;52.382;9.020;2023-04-04T15:41:53;13.70;99.90
10306;DHT22;5198;52.382;9.020;2023-04-04T15:45:58;13.80;99.90
10306;DHT22;5198;52.382;9.020;2023-04-04T15:50:01;13.90;99.90
10306;DHT22;5198;52.382;9.020;2023-04-04T15:54:04;14.30;99.90
10306;DHT22;5198;52.382;9.020;2023-04-04T15:58:07;15.10;99.90
10306;DHT22;5198;52.382;9.020;2023-04-04T16:02:11;15.10;99.90
10306;DHT22;5198;52.382;9.020;2023-04-04T16:06:14;15.40;99.90
10306;DHT22;5198;52.382;9.020;2023-04-04T16:10:17;15.70;99.90
10306;DHT22;5198;52.382;9.020;2023-04-04T16:14:20;15.80;99.90
10306;DHT22;5198;52.382;9.020;2023-04-04T16:18:24;15.70;99.90
10306;DHT22;5198;52.382;9.020;2023-04-04T16:22:27;15.70;99.90
10306;DHT22;5198;52.382;9.020;2023-04-04T16:26:30;15.50;99.90
10306;DHT22;5198;52.382;9.020;2023-04-04T16:30:33;15.30;99.90
10306;DHT22;5198;52.382;9.020;2023-04-04T16:34:37;15.00;99.90
10306;DHT22;5198;52.382;9.020;2023-04-04T16:38:40;14.70;99.90
10306;DHT22;5198;52.382;9.020;2023-04-04T16:42:43;14.30;99.90
10306;DHT22;5198;52.382;9.020;2023-04-04T16:46:46;13.90;99.90
10306;DHT22;5198;52.382;9.020;2023-04-04T16:54:54;13.30;99.90
10306;DHT22;5198;52.382;9.020;2023-04-04T16:58:57;12.90;99.90
10306;DHT22;5198;52.382;9.020;2023-04-04T17:03:00;12.70;99.90
10306;DHT22;5198;52.382;9.020;2023-04-04T17:07:03;12.30;99.90
10306;DHT22;5198;52.382;9.020;2023-04-04T17:11:08;12.10;99.90
10306;DHT22;5198;52.382;9.020;2023-04-04T17:15:11;11.80;99.90
10306;DHT22;5198;52.382;9.020;2023-04-04T17:19:16;11.60;99.90
10306;DHT22;5198;52.382;9.020;2023-04-04T17:23:19;11.40;99.90
10306;DHT22;5198;52.382;9.020;2023-04-04T17:27:23;11.20;99.90
10306;DHT22;5198;52.382;9.020;2023-04-04T17:31:26;11.00;99.90
10306;DHT22;5198;52.382;9.020;2023-04-04T17:35:29;10.80;99.90
10306;DHT22;5198;52.382;9.020;2023-04-04T17:39:32;10.60;99.90
10306;DHT22;5198;52.382;9.020;2023-04-04T17:43:36;10.50;99.90
10306;DHT22;5198;52.382;9.020;2023-04-04T17:47:39;10.30;99.90
10306;DHT22;5198;52.382;9.020;2023-04-04T17:51:42;10.10;99.90
10306;DHT22;5198;52.382;9.020;2023-04-04T17:55:45;10.00;99.90
10306;DHT22;5198;52.382;9.020;2023-04-04T18:07:58;9.60;99.90
10306;DHT22;5198;52.382;9.020;2023-04-04T18:12:05;9.40;99.90
10306;DHT22;5198;52.382;9.020;2023-04-04T18:16:10;9.40;99.90
10306;DHT22;5198;52.382;9.020;2023-04-04T18:20:13;9.20;99.90
10306;DHT22;5198;52.382;9.020;2023-04-04T18:24:35;9.10;99.90
10306;DHT22;5198;52.382;9.020;2023-04-04T18:28:38;9.00;99.90
10306;DHT22;5198;52.382;9.020;2023-04-04T18:32:42;8.90;99.90
10306;DHT22;5198;52.382;9.020;2023-04-04T18:36:45;8.80;99.90
10306;DHT22;5198;52.382;9.020;2023-04-04T18:40:50;8.60;99.90
10306;DHT22;5198;52.382;9.020;2023-04-04T18:44:53;8.60;99.90
10306;DHT22;5198;52.382;9.020;2023-04-04T18:48:58;8.60;99.90
10306;DHT22;5198;52.382;9.020;2023-04-04T18:53:01;8.50;99.90
10306;DHT22;5198;52.382;9.020;2023-04-04T18:57:04;8.40;99.90
10306;DHT22;5198;52.382;9.020;2023-04-04T19:01:07;8.30;99.90
10306;DHT22;5198;52.382;9.020;2023-04-04T19:05:11;8.30;99.90
10306;DHT22;5198;52.382;9.020;2023-04-04T19:09:14;8.20;99.90
10306;DHT22;5198;52.382;9.020;2023-04-04T19:13:17;8.10;99.90
10306;DHT22;5198;52.382;9.020;2023-04-04T19:17:20;8.10;99.90
10306;DHT22;5198;52.382;9.020;2023-04-04T19:21:24;8.00;99.90
10306;DHT22;5198;52.382;9.020;2023-04-04T19:25:28;7.90;99.90
10306;DHT22;5198;52.382;9.020;2023-04-04T19:29:31;7.90;99.90
10306;DHT22;5198;52.382;9.020;2023-04-04T19:33:36;7.80;99.90
10306;DHT22;5198;52.382;9.020;2023-04-04T19:37:40;7.70;99.90
10306;DHT22;5198;52.382;9.020;2023-04-04T19:41:43;7.60;99.90
10306;DHT22;5198;52.382;9.020;2023-04-04T19:45:46;7.60;99.90
10306;DHT22;5198;52.382;9.020;2023-04-04T19:49:49;7.60;99.90
10306;DHT22;5198;52.382;9.020;2023-04-04T19:53:55;7.50;99.90
10306;DHT22;5198;52.382;9.020;2023-04-04T19:57:58;7.40;99.90
10306;DHT22;5198;52.382;9.020;2023-04-04T20:02:02;7.40;99.90
10306;DHT22;5198;52.382;9.020;2023-04-04T20:06:06;7.30;99.90
10306;DHT22;5198;52.382;9.020;2023-04-04T20:10:11;7.30;99.90
10306;DHT22;5198;52.382;9.020;2023-04-04T20:14:17;7.20;99.90
10306;DHT22;5198;52.382;9.020;2023-04-04T20:18:22;7.20;99.90
10306;DHT22;5198;52.382;9.020;2023-04-04T20:34:40;6.90;99.90
10306;DHT22;5198;52.382;9.020;2023-04-04T20:38:45;6.80;99.90
10306;DHT22;5198;52.382;9.020;2023-04-04T20:42:49;6.70;99.90
10306;DHT22;5198;52.382;9.020;2023-04-04T20:46:52;6.60;99.90
10306;DHT22;5198;52.382;9.020;2023-04-04T20:50:56;6.50;99.90
10306;DHT22;5198;52.382;9.020;2023-04-04T20:54:59;6.30;99.90
10306;DHT22;5198;52.382;9.020;2023-04-04T20:59:04;6.20;99.90
10306;DHT22;5198;52.382;9.020;2023-04-04T21:03:08;6.10;99.90
10306;DHT22;5198;52.382;9.020;2023-04-04T21:11:19;5.90;99.90
10306;DHT22;5198;52.382;9.020;2023-04-04T21:15:24;5.90;99.90
10306;DHT22;5198;52.382;9.020;2023-04-04T22:32:35;4.00;99.90
10306;DHT22;5198;52.382;9.020;2023-04-04T22:40:44;3.90;99.90
10306;DHT22;5198;52.382;9.020;2023-04-04T22:44:46;3.80;99.90
10306;DHT22;5198;52.382;9.020;2023-04-04T22:48:51;3.70;99.90
10306;DHT22;5198;52.382;9.020;2023-04-04T22:53:06;3.60;99.90
10306;DHT22;5198;52.382;9.020;2023-04-04T22:57:13;3.50;99.90
10306;DHT22;5198;52.382;9.020;2023-04-04T23:01:16;3.40;99.90
10306;DHT22;5198;52.382;9.020;2023-04-04T23:05:20;3.40;99.90
10306;DHT22;5198;52.382;9.020;2023-04-04T23:09:23;3.30;99.90
10306;DHT22;5198;52.382;9.020;2023-04-04T23:13:26;3.20;99.90
10306;DHT22;5198;52.382;9.020;2023-04-04T23:17:29;3.10;99.90
10306;DHT22;5198;52.382;9.020;2023-04-04T23:21:35;3.10;99.90
10306;DHT22;5198;52.382;9.020;2023-04-04T23:25:38;3.00;99.90
10306;DHT22;5198;52.382;9.020;2023-04-04T23:29:41;2.90;99.90
10306;DHT22;5198;52.382;9.020;2023-04-04T23:33:44;2.80;99.90
10306;DHT22;5198;52.382;9.020;2023-04-04T23:37:49;2.80;99.90
10306;DHT22;5198;52.382;9.020;2023-04-04T23:41:51;2.70;99.90
10306;DHT22;5198;52.382;9.020;2023-04-04T23:45:54;2.60;99.90
10306;DHT22;5198;52.382;9.020;2023-04-04T23:49:57;2.50;99.90
10306;DHT22;5198;52.382;9.020;2023-04-04T23:54:01;2.40;99.90
10306;DHT22;5198;52.382;9.020;2023-04-04T23:58:04;2.40;99.90
